createdAt,value
2022-08-08T00:00:55.923Z,13.13
2022-08-08T00:01:08.044Z,13.11
2022-08-08T00:02:31.036Z,13.13
2022-08-08T00:03:20.088Z,13.08
2022-08-08T00:04:05.137Z,13.05
2022-08-08T00:05:09.459Z,13.09
2022-08-08T00:06:05.025Z,13.13
2022-08-08T00:07:12.534Z,13.20
2022-08-08T00:08:05.020Z,13.22
2022-08-08T00:09:07.936Z,13.16
2022-08-08T00:10:04.940Z,13.23
2022-08-08T00:11:12.850Z,13.11
2022-08-08T00:12:10.053Z,13.12
2022-08-08T00:13:04.804Z,13.09
2022-08-08T00:14:15.751Z,13.01
2022-08-08T00:15:05.206Z,13.03
2022-08-08T00:16:04.710Z,13.03
2022-08-08T00:17:04.677Z,13.03
2022-08-08T00:18:04.856Z,12.91
2022-08-08T00:19:04.620Z,12.94
2022-08-08T00:20:04.645Z,12.94
2022-08-08T00:21:05.994Z,12.90
2022-08-08T00:22:04.523Z,12.94
2022-08-08T00:23:06.065Z,12.94
2022-08-08T00:24:04.456Z,12.90
2022-08-08T00:25:04.481Z,12.93
2022-08-08T00:26:04.412Z,12.83
2022-08-08T00:27:05.817Z,12.90
2022-08-08T00:28:04.338Z,12.83
2022-08-08T00:29:08.153Z,12.78
2022-08-08T00:30:04.358Z,12.72
2022-08-08T00:32:19.910Z,12.70
2022-08-08T00:32:20.243Z,12.67
2022-08-08T00:33:04.207Z,12.72
2022-08-08T00:34:18.140Z,12.67
2022-08-08T00:35:04.472Z,12.64
2022-08-08T00:36:04.186Z,12.55
2022-08-08T00:37:16.292Z,12.55
2022-08-08T00:38:04.044Z,12.47
2022-08-08T00:39:03.986Z,12.46
2022-08-08T00:41:11.393Z,12.46
2022-08-08T00:41:12.737Z,12.45
2022-08-08T00:42:12.659Z,12.43
2022-08-08T00:43:05.995Z,12.40
2022-08-08T00:44:03.897Z,12.42
2022-08-08T00:45:03.801Z,12.32
2022-08-08T00:46:03.766Z,12.43
2022-08-08T00:47:04.531Z,12.29
2022-08-08T00:48:06.355Z,12.32
2022-08-08T00:49:03.672Z,12.35
2022-08-08T00:50:03.642Z,12.37
2022-08-08T00:51:03.609Z,12.25
2022-08-08T00:52:03.580Z,12.29
2022-08-08T00:53:03.597Z,12.35
2022-08-08T00:54:13.589Z,12.32
2022-08-08T00:55:03.486Z,12.27
2022-08-08T00:56:03.453Z,12.20
2022-08-08T00:57:03.508Z,12.21
2022-08-08T00:58:03.446Z,12.28
2022-08-08T00:59:03.356Z,12.20
2022-08-08T01:00:04.888Z,12.15
2022-08-08T01:01:03.356Z,12.21
2022-08-08T01:02:03.309Z,12.13
2022-08-08T01:04:01.764Z,12.15
2022-08-08T01:04:04.841Z,12.15
2022-08-08T01:05:03.869Z,12.17
2022-08-08T01:06:03.137Z,12.04
2022-08-08T01:07:05.882Z,12.04
2022-08-08T01:08:03.078Z,12.07
2022-08-08T01:09:35.941Z,12.13
2022-08-08T01:10:06.001Z,12.10
2022-08-08T01:11:02.977Z,12.07
2022-08-08T01:12:03.028Z,12.09
2022-08-08T01:13:02.913Z,12.09
2022-08-08T01:14:02.955Z,12.09
2022-08-08T01:15:02.909Z,12.09
2022-08-08T01:16:02.817Z,11.99
2022-08-08T01:17:02.827Z,11.95
2022-08-08T01:18:03.538Z,12.00
2022-08-08T01:19:13.779Z,11.91
2022-08-08T01:20:03.870Z,11.97
2022-08-08T01:21:02.662Z,11.97
2022-08-08T01:22:12.195Z,11.99
2022-08-08T01:23:03.070Z,12.04
2022-08-08T01:24:13.471Z,12.06
2022-08-08T01:25:02.534Z,12.10
2022-08-08T01:26:05.981Z,12.06
2022-08-08T01:27:02.471Z,11.97
2022-08-08T01:28:02.521Z,12.07
2022-08-08T01:29:02.412Z,12.02
2022-08-08T01:30:03.531Z,11.94
2022-08-08T01:31:02.370Z,12.07
2022-08-08T01:32:13.701Z,11.99
2022-08-08T01:33:02.277Z,11.97
2022-08-08T01:34:02.255Z,11.97
2022-08-08T01:35:02.216Z,12.02
2022-08-08T01:36:02.267Z,12.00
2022-08-08T01:37:02.224Z,12.00
2022-08-08T01:38:02.172Z,11.95
2022-08-08T01:39:02.123Z,11.99
2022-08-08T01:40:02.600Z,11.94
2022-08-08T01:41:02.027Z,11.94
2022-08-08T01:42:01.996Z,11.97
2022-08-08T01:43:02.015Z,11.94
2022-08-08T01:44:01.935Z,11.91
2022-08-08T01:45:01.902Z,11.97
2022-08-08T01:46:01.871Z,11.97
2022-08-08T01:47:06.033Z,11.95
2022-08-08T01:48:23.261Z,11.94
2022-08-08T01:49:01.768Z,11.91
2022-08-08T01:50:01.740Z,11.90
2022-08-08T01:51:01.707Z,11.88
2022-08-08T01:52:43.871Z,11.87
2022-08-08T01:55:16.719Z,11.84
2022-08-08T01:55:17.045Z,11.80
2022-08-08T01:55:44.918Z,11.83
2022-08-08T01:56:29.928Z,11.81
2022-08-08T01:57:01.516Z,11.75
2022-08-08T01:58:11.261Z,11.70
2022-08-08T01:59:02.800Z,11.75
2022-08-08T02:00:03.527Z,11.69
2022-08-08T02:01:01.420Z,11.62
2022-08-08T02:02:05.018Z,11.62
2022-08-08T02:03:01.325Z,11.68
2022-08-08T02:04:01.783Z,11.60
2022-08-08T02:05:01.308Z,11.69
2022-08-08T02:06:01.226Z,11.62
2022-08-08T02:07:01.198Z,11.60
2022-08-08T02:08:01.164Z,11.55
2022-08-08T02:09:01.131Z,11.50
2022-08-08T02:10:11.830Z,11.51
2022-08-08T02:11:01.125Z,11.57
2022-08-08T02:12:01.042Z,11.54
2022-08-08T02:13:01.199Z,11.44
2022-08-08T02:14:00.980Z,11.45
2022-08-08T02:15:01.011Z,11.47
2022-08-08T02:16:00.958Z,11.44
2022-08-08T02:17:00.880Z,11.43
2022-08-08T02:18:00.844Z,11.45
2022-08-08T02:19:00.811Z,11.43
2022-08-08T02:20:09.792Z,11.43
2022-08-08T02:21:08.512Z,11.44
2022-08-08T02:22:00.724Z,11.35
2022-08-08T02:23:00.684Z,11.30
2022-08-08T02:24:00.652Z,11.30
2022-08-08T02:25:00.629Z,11.26
2022-08-08T02:26:00.866Z,11.26
2022-08-08T02:27:01.003Z,11.26
2022-08-08T02:28:00.966Z,11.26
2022-08-08T02:29:00.509Z,11.19
2022-08-08T02:30:00.463Z,11.17
2022-08-08T02:31:02.277Z,11.26
2022-08-08T02:32:04.659Z,11.11
2022-08-08T02:33:00.373Z,11.11
2022-08-08T02:34:08.386Z,11.12
2022-08-08T02:35:08.335Z,11.14
2022-08-08T02:36:04.626Z,11.04
2022-08-08T02:37:00.310Z,11.04
2022-08-08T02:38:00.266Z,11.04
2022-08-08T02:39:01.091Z,11.02
2022-08-08T02:40:00.678Z,11.07
2022-08-08T02:41:00.110Z,11.08
2022-08-08T02:42:05.415Z,11.02
2022-08-08T02:44:34.756Z,11.05
2022-08-08T02:44:38.061Z,10.94
2022-08-08T02:44:59.979Z,10.99
2022-08-08T02:45:59.948Z,10.96
2022-08-08T02:46:59.914Z,10.94
2022-08-08T02:47:59.933Z,10.90
2022-08-08T02:48:59.924Z,10.96
2022-08-08T02:49:59.832Z,10.86
2022-08-08T02:50:59.784Z,10.94
2022-08-08T02:52:03.174Z,10.99
2022-08-08T02:52:59.721Z,10.96
2022-08-08T02:53:59.709Z,11.04
2022-08-08T02:54:59.711Z,11.04
2022-08-08T02:56:00.118Z,11.04
2022-08-08T02:56:59.591Z,11.02
2022-08-08T02:57:59.560Z,11.05
2022-08-08T02:58:59.528Z,11.02
2022-08-08T03:00:27.090Z,11.04
2022-08-08T03:00:59.598Z,11.02
2022-08-08T03:01:59.491Z,11.08
2022-08-08T03:02:59.396Z,10.99
2022-08-08T03:05:03.590Z,11.00
2022-08-08T03:05:03.996Z,10.99
2022-08-08T03:05:59.358Z,11.02
2022-08-08T03:06:59.273Z,10.99
2022-08-08T03:08:05.961Z,10.99
2022-08-08T03:08:59.208Z,10.96
2022-08-08T03:09:59.170Z,10.94
2022-08-08T03:10:59.203Z,10.90
2022-08-08T03:12:02.769Z,10.94
2022-08-08T03:13:02.668Z,10.93
2022-08-08T03:15:56.685Z,10.84
2022-08-08T03:15:58.741Z,10.92
2022-08-08T03:16:05.292Z,10.86
2022-08-08T03:16:59.015Z,10.93
2022-08-08T03:18:04.839Z,10.92
2022-08-08T03:18:58.893Z,10.89
2022-08-08T03:19:58.851Z,10.93
2022-08-08T03:20:58.872Z,10.86
2022-08-08T03:22:00.006Z,10.93
2022-08-08T03:23:00.406Z,10.82
2022-08-08T03:24:01.872Z,10.97
2022-08-08T03:24:58.724Z,10.81
2022-08-08T03:25:58.662Z,10.87
2022-08-08T03:26:58.625Z,10.89
2022-08-08T03:27:58.596Z,10.84
2022-08-08T03:28:58.676Z,10.89
2022-08-08T03:29:58.529Z,10.94
2022-08-08T03:31:22.146Z,10.90
2022-08-08T03:32:06.563Z,10.90
2022-08-08T03:33:07.477Z,11.00
2022-08-08T03:34:02.030Z,10.89
2022-08-08T03:34:58.416Z,10.93
2022-08-08T03:35:58.335Z,11.04
2022-08-08T03:36:58.299Z,11.05
2022-08-08T03:38:54.213Z,11.14
2022-08-08T03:39:14.882Z,11.10
2022-08-08T03:40:00.537Z,11.10
2022-08-08T03:40:58.325Z,11.10
2022-08-08T03:42:27.725Z,10.99
2022-08-08T03:42:58.110Z,11.05
2022-08-08T03:43:59.603Z,11.07
2022-08-08T03:44:58.043Z,11.05
2022-08-08T03:46:06.494Z,11.05
2022-08-08T03:46:57.979Z,11.05
2022-08-08T03:47:57.943Z,11.07
2022-08-08T03:49:38.121Z,11.07
2022-08-08T03:50:01.913Z,11.07
2022-08-08T03:50:58.147Z,11.05
2022-08-08T03:51:57.940Z,11.07
2022-08-08T03:52:58.478Z,11.05
2022-08-08T03:53:57.753Z,11.02
2022-08-08T03:55:10.928Z,10.99
2022-08-08T03:56:04.423Z,11.04
2022-08-08T03:56:57.705Z,11.02
2022-08-08T03:58:33.403Z,11.02
2022-08-08T03:58:57.588Z,11.02
2022-08-08T03:59:57.559Z,11.00
2022-08-08T04:01:02.746Z,11.08
2022-08-08T04:02:12.813Z,11.12
2022-08-08T04:02:57.780Z,11.17
2022-08-08T04:04:01.690Z,11.12
2022-08-08T04:04:57.403Z,11.15
2022-08-08T04:05:57.366Z,11.12
2022-08-08T04:06:57.333Z,11.11
2022-08-08T04:07:58.303Z,11.12
2022-08-08T04:08:57.264Z,11.11
2022-08-08T04:10:00.524Z,11.19
2022-08-08T04:10:59.668Z,11.12
2022-08-08T04:11:58.643Z,11.19
2022-08-08T04:12:57.191Z,11.15
2022-08-08T04:14:03.439Z,11.23
2022-08-08T04:14:57.078Z,11.17
2022-08-08T04:16:03.765Z,11.26
2022-08-08T04:16:57.585Z,11.29
2022-08-08T04:17:58.804Z,11.33
2022-08-08T04:18:56.944Z,11.43
2022-08-08T04:19:56.916Z,11.43
2022-08-08T04:20:56.879Z,11.48
2022-08-08T04:21:56.850Z,11.63
2022-08-08T04:22:57.245Z,11.73
2022-08-08T04:24:11.560Z,11.88
2022-08-08T04:24:56.752Z,11.95
2022-08-08T04:25:56.724Z,11.97
2022-08-08T04:26:57.773Z,12.07
2022-08-08T04:28:02.800Z,12.18
2022-08-08T04:28:56.690Z,12.28
2022-08-08T04:30:01.131Z,12.36
2022-08-08T04:30:57.659Z,12.46
2022-08-08T04:31:58.533Z,12.50
2022-08-08T04:32:56.501Z,12.58
2022-08-08T04:33:56.475Z,12.58
2022-08-08T04:34:58.394Z,12.55
2022-08-08T04:35:56.403Z,12.45
2022-08-08T04:36:56.368Z,12.49
2022-08-08T04:37:56.344Z,12.49
2022-08-08T04:39:21.378Z,12.46
2022-08-08T04:40:05.110Z,12.43
2022-08-08T04:40:56.285Z,12.46
2022-08-08T04:41:56.215Z,12.49
2022-08-08T04:42:57.973Z,12.49
2022-08-08T04:43:57.211Z,12.43
2022-08-08T04:44:56.469Z,12.58
2022-08-08T04:45:56.091Z,12.53
2022-08-08T04:46:58.089Z,12.61
2022-08-08T04:47:56.021Z,12.57
2022-08-08T04:48:55.993Z,12.64
2022-08-08T04:50:01.420Z,12.68
2022-08-08T04:50:56.068Z,12.70
2022-08-08T04:51:57.562Z,12.68
2022-08-08T04:52:58.727Z,12.80
2022-08-08T04:54:39.510Z,12.90
2022-08-08T04:54:55.830Z,12.97
2022-08-08T04:55:56.766Z,12.98
2022-08-08T04:56:55.834Z,13.03
2022-08-08T04:57:55.703Z,13.08
2022-08-08T04:58:55.677Z,13.12
2022-08-08T04:59:55.643Z,13.20
2022-08-08T05:00:55.613Z,13.15
2022-08-08T05:02:00.692Z,13.16
2022-08-08T05:02:55.545Z,13.37
2022-08-08T05:04:10.628Z,13.33
2022-08-08T05:04:55.486Z,13.35
2022-08-08T05:05:55.455Z,13.49
2022-08-08T05:06:56.487Z,13.47
2022-08-08T05:07:56.568Z,13.59
2022-08-08T05:08:55.785Z,13.68
2022-08-08T05:09:55.331Z,13.90
2022-08-08T05:10:55.303Z,14.30
2022-08-08T05:11:57.304Z,14.36
2022-08-08T05:13:01.642Z,14.45
2022-08-08T05:14:00.782Z,14.50
2022-08-08T05:14:55.178Z,14.35
2022-08-08T05:16:54.855Z,14.30
2022-08-08T05:17:01.236Z,14.30
2022-08-08T05:17:55.209Z,14.33
2022-08-08T05:18:55.049Z,14.28
2022-08-08T05:20:11.573Z,14.26
2022-08-08T05:20:54.987Z,14.35
2022-08-08T05:21:58.025Z,14.37
2022-08-08T05:22:55.409Z,14.40
2022-08-08T05:24:04.437Z,14.41
2022-08-08T05:24:54.862Z,14.60
2022-08-08T05:26:00.237Z,14.73
2022-08-08T05:26:54.800Z,14.69
2022-08-08T05:27:55.119Z,14.63
2022-08-08T05:28:57.476Z,14.65
2022-08-08T05:29:54.897Z,14.79
2022-08-08T05:30:54.675Z,14.79
2022-08-08T05:32:03.924Z,14.88
2022-08-08T05:32:54.616Z,14.99
2022-08-08T05:33:54.756Z,15.06
2022-08-08T05:34:54.631Z,15.04
2022-08-08T05:35:54.530Z,15.09
2022-08-08T05:36:56.442Z,15.10
2022-08-08T05:37:54.798Z,15.17
2022-08-08T05:38:54.436Z,15.11
2022-08-08T05:39:54.563Z,15.17
2022-08-08T05:40:57.839Z,15.31
2022-08-08T05:41:55.168Z,15.33
2022-08-08T05:42:54.309Z,15.27
2022-08-08T05:44:03.981Z,15.33
2022-08-08T05:44:54.322Z,15.44
2022-08-08T05:45:55.122Z,15.47
2022-08-08T05:46:54.193Z,15.47
2022-08-08T05:48:00.249Z,15.58
2022-08-08T05:48:54.357Z,15.67
2022-08-08T05:49:56.169Z,15.70
2022-08-08T05:50:58.751Z,15.73
2022-08-08T05:51:54.120Z,15.82
2022-08-08T05:52:54.034Z,15.84
2022-08-08T05:54:27.477Z,15.86
2022-08-08T05:55:02.047Z,15.86
2022-08-08T05:56:11.551Z,15.98
2022-08-08T05:56:53.892Z,15.98
2022-08-08T05:58:05.761Z,16.05
2022-08-08T05:58:58.281Z,16.08
2022-08-08T06:00:16.564Z,16.05
2022-08-08T06:00:58.457Z,16.15
2022-08-08T06:01:57.072Z,16.17
2022-08-08T06:02:53.806Z,16.26
2022-08-08T06:03:55.736Z,16.29
2022-08-08T06:04:54.524Z,16.36
2022-08-08T06:05:53.623Z,16.43
2022-08-08T06:06:53.731Z,16.36
2022-08-08T06:08:02.188Z,16.54
2022-08-08T06:08:55.327Z,16.43
2022-08-08T06:09:59.566Z,16.43
2022-08-08T06:10:53.501Z,16.49
2022-08-08T06:11:53.505Z,16.53
2022-08-08T06:12:53.409Z,16.60
2022-08-08T06:13:53.384Z,16.65
2022-08-08T06:14:53.356Z,16.69
2022-08-08T06:15:53.939Z,16.79
2022-08-08T06:16:53.291Z,16.74
2022-08-08T06:18:20.088Z,16.83
2022-08-08T06:18:53.232Z,16.90
2022-08-08T06:19:53.219Z,16.93
2022-08-08T06:20:57.312Z,16.93
2022-08-08T06:21:57.649Z,17.02
2022-08-08T06:22:53.128Z,17.05
2022-08-08T06:24:02.594Z,17.12
2022-08-08T06:24:53.355Z,17.20
2022-08-08T06:26:42.873Z,17.24
2022-08-08T06:26:52.999Z,17.26
2022-08-08T06:27:52.967Z,17.33
2022-08-08T06:28:54.226Z,17.38
2022-08-08T06:30:00.508Z,17.49
2022-08-08T06:30:52.881Z,17.59
2022-08-08T06:32:10.560Z,17.72
2022-08-08T06:32:52.895Z,17.82
2022-08-08T06:34:27.097Z,17.82
2022-08-08T06:35:12.061Z,17.87
2022-08-08T06:36:04.458Z,17.94
2022-08-08T06:36:53.944Z,17.95
2022-08-08T06:37:53.699Z,18.00
2022-08-08T06:38:52.648Z,17.95
2022-08-08T06:39:56.180Z,18.05
2022-08-08T06:40:54.077Z,18.08
2022-08-08T06:41:52.565Z,18.07
2022-08-08T06:42:52.539Z,18.08
2022-08-08T06:43:56.933Z,18.22
2022-08-08T06:44:52.507Z,18.29
2022-08-08T06:45:52.494Z,18.25
2022-08-08T06:46:52.426Z,18.28
2022-08-08T06:48:01.274Z,18.55
2022-08-08T06:48:52.359Z,18.56
2022-08-08T06:49:56.677Z,18.70
2022-08-08T06:50:53.241Z,18.60
2022-08-08T06:51:57.702Z,18.90
2022-08-08T06:52:52.251Z,18.88
2022-08-08T06:53:56.140Z,19.07
2022-08-08T06:54:52.230Z,19.15
2022-08-08T06:56:02.015Z,19.16
2022-08-08T06:56:52.900Z,19.16
2022-08-08T06:57:56.177Z,19.37
2022-08-08T06:58:52.074Z,19.37
2022-08-08T07:00:10.255Z,19.37
2022-08-08T07:00:52.016Z,19.45
2022-08-08T07:02:16.684Z,19.44
2022-08-08T07:02:52.587Z,19.52
2022-08-08T07:04:40.394Z,19.52
2022-08-08T07:04:52.497Z,19.56
2022-08-08T07:06:02.317Z,19.71
2022-08-08T07:06:51.888Z,19.76
2022-08-08T07:07:51.869Z,19.79
2022-08-08T07:08:51.790Z,19.85
2022-08-08T07:09:59.729Z,19.86
2022-08-08T07:10:51.734Z,19.95
2022-08-08T07:11:52.004Z,20.02
2022-08-08T07:12:51.734Z,20.07
2022-08-08T07:14:00.505Z,20.16
2022-08-08T07:14:51.736Z,20.09
2022-08-08T07:16:05.048Z,20.24
2022-08-08T07:16:53.878Z,20.11
2022-08-08T07:18:02.129Z,20.29
2022-08-08T07:18:51.519Z,20.28
2022-08-08T07:19:51.479Z,20.26
2022-08-08T07:20:51.682Z,20.37
2022-08-08T07:21:51.427Z,20.34
2022-08-08T07:22:51.398Z,20.40
2022-08-08T07:24:02.168Z,20.40
2022-08-08T07:24:51.345Z,20.58
2022-08-08T07:25:54.529Z,20.63
2022-08-08T07:26:53.056Z,20.62
2022-08-08T07:28:02.892Z,20.74
2022-08-08T07:28:51.287Z,20.84
2022-08-08T07:30:01.709Z,21.02
2022-08-08T07:30:51.183Z,21.06
2022-08-08T07:31:51.156Z,21.07
2022-08-08T07:32:51.123Z,21.21
2022-08-08T07:33:53.475Z,21.33
2022-08-08T07:35:01.046Z,21.36
2022-08-08T07:35:54.328Z,21.37
2022-08-08T07:36:51.020Z,21.36
2022-08-08T07:38:04.618Z,21.39
2022-08-08T07:38:53.313Z,21.39
2022-08-08T07:39:57.857Z,21.36
2022-08-08T07:40:50.910Z,21.45
2022-08-08T07:42:04.562Z,21.46
2022-08-08T07:42:50.857Z,21.50
2022-08-08T07:43:51.203Z,21.52
2022-08-08T07:44:51.277Z,21.46
2022-08-08T07:45:51.562Z,21.58
2022-08-08T07:46:50.750Z,21.58
2022-08-08T07:47:51.621Z,21.57
2022-08-08T07:48:50.685Z,21.70
2022-08-08T07:49:50.715Z,21.76
2022-08-08T07:50:50.731Z,21.72
2022-08-08T07:51:53.555Z,21.72
2022-08-08T07:52:50.585Z,21.73
2022-08-08T07:54:01.061Z,21.79
2022-08-08T07:54:50.530Z,21.83
2022-08-08T07:55:50.500Z,21.83
2022-08-08T07:56:50.690Z,21.88
2022-08-08T07:57:50.443Z,21.89
2022-08-08T07:58:50.417Z,22.04
2022-08-08T07:59:50.459Z,22.02
2022-08-08T08:00:50.411Z,22.08
2022-08-08T08:02:36.489Z,22.13
2022-08-08T08:02:50.370Z,22.06
2022-08-08T08:03:50.283Z,22.11
2022-08-08T08:04:52.069Z,22.14
2022-08-08T08:05:50.779Z,22.11
2022-08-08T08:06:50.205Z,22.14
2022-08-08T08:07:53.112Z,22.18
2022-08-08T08:08:52.472Z,22.28
2022-08-08T08:09:50.125Z,22.32
2022-08-08T08:10:50.127Z,22.44
2022-08-08T08:11:51.883Z,22.41
2022-08-08T08:12:50.377Z,22.44
2022-08-08T08:14:09.827Z,22.45
2022-08-08T08:14:50.012Z,22.47
2022-08-08T08:15:49.986Z,22.54
2022-08-08T08:16:50.347Z,22.50
2022-08-08T08:17:55.823Z,22.63
2022-08-08T08:18:52.217Z,22.63
2022-08-08T08:19:50.629Z,22.69
2022-08-08T08:20:49.835Z,22.70
2022-08-08T08:21:57.610Z,22.68
2022-08-08T08:22:49.781Z,22.76
2022-08-08T08:23:51.182Z,22.81
2022-08-08T08:24:49.848Z,22.91
2022-08-08T08:25:52.015Z,23.02
2022-08-08T08:26:52.819Z,23.06
2022-08-08T08:27:49.646Z,23.05
2022-08-08T08:28:49.622Z,23.03
2022-08-08T08:29:50.994Z,23.12
2022-08-08T08:30:49.615Z,23.18
2022-08-08T08:31:57.644Z,23.15
2022-08-08T08:32:52.037Z,23.12
2022-08-08T08:33:50.653Z,23.15
2022-08-08T08:34:49.468Z,23.12
2022-08-08T08:36:19.723Z,23.17
2022-08-08T08:36:51.497Z,23.28
2022-08-08T08:38:13.622Z,23.25
2022-08-08T08:38:50.197Z,23.31
2022-08-08T08:40:01.954Z,23.27
2022-08-08T08:40:51.564Z,23.40
2022-08-08T08:41:49.498Z,23.28
2022-08-08T08:42:49.253Z,23.43
2022-08-08T08:43:49.233Z,23.39
2022-08-08T08:44:49.208Z,23.48
2022-08-08T08:45:50.055Z,23.50
2022-08-08T08:46:50.962Z,23.50
2022-08-08T08:47:49.173Z,23.51
2022-08-08T08:48:49.882Z,23.59
2022-08-08T08:49:49.077Z,23.50
2022-08-08T08:50:49.047Z,23.66
2022-08-08T08:51:50.947Z,23.65
2022-08-08T08:52:59.459Z,23.65
2022-08-08T08:53:56.474Z,23.66
2022-08-08T08:54:48.960Z,23.63
2022-08-08T08:55:48.924Z,23.76
2022-08-08T08:56:48.894Z,23.83
2022-08-08T08:57:48.870Z,23.87
2022-08-08T08:58:50.555Z,23.84
2022-08-08T09:00:01.723Z,23.98
2022-08-08T09:01:09.087Z,23.98
2022-08-08T09:01:48.820Z,24.02
2022-08-08T09:02:48.743Z,23.99
2022-08-08T09:03:50.856Z,24.05
2022-08-08T09:04:50.219Z,24.10
2022-08-08T09:05:54.463Z,24.02
2022-08-08T09:06:50.482Z,24.11
2022-08-08T09:07:52.374Z,24.06
2022-08-08T09:08:51.958Z,24.06
2022-08-08T09:09:55.210Z,24.20
2022-08-08T09:10:48.540Z,24.35
2022-08-08T09:12:02.013Z,24.38
2022-08-08T09:12:48.497Z,24.33
2022-08-08T09:13:48.501Z,24.35
2022-08-08T09:14:48.713Z,24.29
2022-08-08T09:15:48.434Z,24.28
2022-08-08T09:16:49.326Z,24.26
2022-08-08T09:17:55.535Z,24.35
2022-08-08T09:18:48.340Z,24.35
2022-08-08T09:21:58.408Z,24.23
2022-08-08T09:21:59.390Z,24.36
2022-08-08T09:22:01.964Z,24.36
2022-08-08T09:22:48.237Z,24.33
2022-08-08T09:23:48.217Z,24.45
2022-08-08T09:24:48.232Z,24.45
2022-08-08T09:25:54.901Z,24.47
2022-08-08T09:26:49.838Z,24.51
2022-08-08T09:27:57.482Z,24.57
2022-08-08T09:28:48.088Z,24.57
2022-08-08T09:29:52.697Z,24.55
2022-08-08T09:30:48.172Z,24.58
2022-08-08T09:31:56.023Z,24.58
2022-08-08T09:32:50.462Z,24.61
2022-08-08T09:34:15.413Z,24.74
2022-08-08T09:34:50.510Z,24.70
2022-08-08T09:35:50.187Z,24.68
2022-08-08T09:37:28.618Z,24.68
2022-08-08T09:38:01.796Z,24.73
2022-08-08T09:38:52.544Z,24.69
2022-08-08T09:39:47.913Z,24.84
2022-08-08T09:40:53.969Z,24.74
2022-08-08T09:42:13.960Z,24.69
2022-08-08T09:42:51.815Z,24.69
2022-08-08T09:44:05.087Z,24.78
2022-08-08T09:44:47.708Z,24.85
2022-08-08T09:46:01.080Z,24.85
2022-08-08T09:46:57.723Z,24.99
2022-08-08T09:48:05.120Z,24.89
2022-08-08T09:48:50.105Z,24.86
2022-08-08T09:49:49.531Z,24.78
2022-08-08T09:50:50.355Z,24.78
2022-08-08T09:52:06.215Z,24.88
2022-08-08T09:52:55.463Z,24.80
2022-08-08T09:53:59.111Z,24.92
2022-08-08T09:54:47.450Z,24.92
2022-08-08T09:56:04.492Z,24.91
2022-08-08T09:56:47.413Z,25.03
2022-08-08T09:57:55.728Z,25.18
2022-08-08T09:58:47.407Z,25.25
2022-08-08T10:00:01.764Z,25.17
2022-08-08T10:00:53.689Z,25.21
2022-08-08T10:01:59.855Z,25.23
2022-08-08T10:02:47.256Z,25.23
2022-08-08T10:03:55.784Z,25.23
2022-08-08T10:04:47.782Z,25.32
2022-08-08T10:05:47.275Z,25.26
2022-08-08T10:06:47.162Z,25.33
2022-08-08T10:07:47.141Z,25.46
2022-08-08T10:08:48.084Z,25.55
2022-08-08T10:09:58.845Z,25.65
2022-08-08T10:10:51.374Z,25.72
2022-08-08T10:12:28.418Z,25.80
2022-08-08T10:12:54.407Z,25.88
2022-08-08T10:13:47.585Z,26.02
2022-08-08T10:14:47.020Z,26.02
2022-08-08T10:15:59.071Z,26.03
2022-08-08T10:16:46.990Z,26.06
2022-08-08T10:18:04.027Z,25.96
2022-08-08T10:18:46.953Z,25.93
2022-08-08T10:19:58.096Z,25.91
2022-08-08T10:20:57.495Z,25.70
2022-08-08T10:21:51.014Z,25.70
2022-08-08T10:22:55.019Z,25.81
2022-08-08T10:23:55.494Z,25.77
2022-08-08T10:24:46.793Z,25.72
2022-08-08T10:25:57.135Z,25.63
2022-08-08T10:26:57.146Z,25.47
2022-08-08T10:27:46.664Z,25.44
2022-08-08T10:28:53.735Z,25.29
2022-08-08T10:29:59.158Z,25.08
2022-08-08T10:31:00.179Z,24.88
2022-08-08T10:31:47.826Z,24.88
2022-08-08T10:32:48.805Z,24.88
2022-08-08T10:34:18.778Z,24.89
2022-08-08T10:34:46.765Z,25.01
2022-08-08T10:36:07.258Z,25.06
2022-08-08T10:36:46.517Z,24.96
2022-08-08T10:37:46.424Z,25.22
2022-08-08T10:38:46.469Z,25.17
2022-08-08T10:39:54.767Z,25.04
2022-08-08T10:40:46.353Z,25.03
2022-08-08T10:42:13.049Z,25.16
2022-08-08T10:42:46.302Z,25.21
2022-08-08T10:43:46.290Z,25.31
2022-08-08T10:44:49.445Z,25.31
2022-08-08T10:45:57.329Z,25.41
2022-08-08T10:46:46.314Z,25.53
2022-08-08T10:47:48.662Z,25.66
2022-08-08T10:48:57.267Z,25.90
2022-08-08T10:50:01.223Z,25.95
2022-08-08T10:50:46.118Z,26.18
2022-08-08T10:51:50.873Z,26.25
2022-08-08T10:52:46.071Z,26.29
2022-08-08T10:53:57.514Z,26.40
2022-08-08T10:54:46.408Z,26.43
2022-08-08T10:55:46.637Z,26.56
2022-08-08T10:56:45.980Z,26.60
2022-08-08T10:57:50.869Z,26.80
2022-08-08T10:58:54.568Z,26.65
2022-08-08T10:59:47.605Z,26.73
2022-08-08T11:00:53.221Z,26.83
2022-08-08T11:01:45.979Z,26.92
2022-08-08T11:02:45.837Z,27.02
2022-08-08T11:04:00.550Z,27.12
2022-08-08T11:04:53.639Z,27.02
2022-08-08T11:05:45.985Z,26.97
2022-08-08T11:06:47.400Z,26.93
2022-08-08T11:08:36.635Z,26.88
2022-08-08T11:08:53.158Z,26.73
2022-08-08T11:09:45.700Z,26.75
2022-08-08T11:10:45.665Z,26.59
2022-08-08T11:12:05.321Z,26.37
2022-08-08T11:12:45.616Z,26.23
2022-08-08T11:13:51.908Z,26.25
2022-08-08T11:14:45.561Z,26.22
2022-08-08T11:15:58.855Z,26.05
2022-08-08T11:16:46.631Z,25.87
2022-08-08T11:18:00.120Z,25.85
2022-08-08T11:18:45.491Z,25.68
2022-08-08T11:19:46.653Z,25.66
2022-08-08T11:20:52.427Z,25.59
2022-08-08T11:21:55.467Z,25.75
2022-08-08T11:22:45.431Z,25.84
2022-08-08T11:23:45.367Z,26.03
2022-08-08T11:24:45.606Z,26.02
2022-08-08T11:25:55.314Z,26.18
2022-08-08T11:26:56.402Z,26.21
2022-08-08T11:27:46.763Z,26.22
2022-08-08T11:28:45.247Z,26.16
2022-08-08T11:29:58.261Z,26.21
2022-08-08T11:30:51.996Z,26.19
2022-08-08T11:31:48.181Z,26.22
2022-08-08T11:32:47.269Z,26.09
2022-08-08T11:33:52.726Z,26.00
2022-08-08T11:35:09.594Z,26.02
2022-08-08T11:35:45.092Z,26.00
2022-08-08T11:36:45.066Z,26.03
2022-08-08T11:38:36.753Z,26.09
2022-08-08T11:38:54.307Z,26.19
2022-08-08T11:39:57.153Z,26.19
2022-08-08T11:40:48.528Z,26.44
2022-08-08T11:41:44.987Z,26.48
2022-08-08T11:42:44.948Z,26.52
2022-08-08T11:43:44.966Z,26.53
2022-08-08T11:44:44.932Z,26.55
2022-08-08T11:46:08.971Z,26.59
2022-08-08T11:46:44.844Z,26.58
2022-08-08T11:48:02.914Z,26.66
2022-08-08T11:48:46.939Z,26.65
2022-08-08T11:49:45.290Z,26.65
2022-08-08T11:50:44.752Z,26.68
2022-08-08T11:51:49.829Z,26.63
2022-08-08T11:52:47.316Z,26.62
2022-08-08T11:53:55.307Z,26.62
2022-08-08T11:54:46.693Z,26.60
2022-08-08T11:55:44.637Z,26.59
2022-08-08T11:56:44.697Z,26.60
2022-08-08T11:57:45.231Z,26.53
2022-08-08T11:58:44.572Z,26.38
2022-08-08T12:00:01.704Z,26.36
2022-08-08T12:00:44.531Z,26.51
2022-08-08T12:01:44.520Z,26.55
2022-08-08T12:02:45.360Z,26.55
2022-08-08T12:03:44.519Z,26.48
2022-08-08T12:04:44.446Z,26.51
2022-08-08T12:05:44.469Z,26.38
2022-08-08T12:06:44.764Z,26.26
2022-08-08T12:07:44.455Z,26.06
2022-08-08T12:08:44.348Z,25.98
2022-08-08T12:09:59.751Z,26.00
2022-08-08T12:10:47.715Z,25.99
2022-08-08T12:11:44.277Z,26.05
2022-08-08T12:12:46.015Z,26.13
2022-08-08T12:14:02.960Z,26.19
2022-08-08T12:14:44.203Z,26.37
2022-08-08T12:15:47.092Z,26.33
2022-08-08T12:16:47.288Z,26.52
2022-08-08T12:17:44.388Z,26.56
2022-08-08T12:18:44.121Z,26.68
2022-08-08T12:19:51.712Z,26.80
2022-08-08T12:20:44.141Z,26.85
2022-08-08T12:21:59.384Z,26.77
2022-08-08T12:22:45.687Z,26.62
2022-08-08T12:23:58.454Z,26.55
2022-08-08T12:24:51.343Z,26.29
2022-08-08T12:25:44.849Z,26.15
2022-08-08T12:26:43.989Z,26.26
2022-08-08T12:27:45.153Z,26.29
2022-08-08T12:28:45.467Z,26.34
2022-08-08T12:29:45.081Z,26.48
2022-08-08T12:30:49.932Z,26.55
2022-08-08T12:31:53.172Z,26.65
2022-08-08T12:32:43.794Z,26.71
2022-08-08T12:34:01.972Z,26.55
2022-08-08T12:34:43.745Z,26.65
2022-08-08T12:35:52.573Z,26.66
2022-08-08T12:36:46.450Z,26.62
2022-08-08T12:37:48.157Z,26.78
2022-08-08T12:38:43.652Z,26.89
2022-08-08T12:40:01.106Z,26.81
2022-08-08T12:40:54.245Z,26.65
2022-08-08T12:41:57.222Z,26.63
2022-08-08T12:42:47.489Z,26.78
2022-08-08T12:43:59.890Z,26.89
2022-08-08T12:44:43.518Z,27.05
2022-08-08T12:45:59.450Z,27.25
2022-08-08T12:46:43.468Z,27.26
2022-08-08T12:48:04.735Z,27.10
2022-08-08T12:48:59.752Z,27.02
2022-08-08T12:49:45.505Z,27.05
2022-08-08T12:50:46.528Z,27.17
2022-08-08T12:51:49.774Z,27.15